Aviation Digital Data Service (ADDS)

Output produced by METARs form (0952 UTC 30 August 2015)
found at http://aviationweather.gov/adds/metars/
 
KBFD 300911Z 3009/3106 00000KT 2SM BR FEW035 BKN110 
     TEMPO 3009/3011 2SM BR 
     FM301300 24005KT P6SM BKN250 
     FM301500 VRB03KT 6SM HZ VCTS BKN050CB 
     FM302000 VRB03KT 6SM HZ BKN050 
     PROB30 3020/3023 5SM -TSRA BKN040CB